Latest Weather Observations for Warburton

IDD60801

Issued at 9:21 pm CST Thursday 17 January 2019 (issued every 10 minutes, with the page automatically refreshed every 10 minutes)

About weather observations | Map of weather stations | Latest weather observations for NT | Other Formats
Station Details ID: 013011 Name: WARBURTON AIRFIELD Lat: -26.13 Lon: 126.58 Height: 459.0 m
Data from the previous 72 hours. | See also: Recent months at Warburton
Date/Time
CST
Temp
°C
App
Temp
°C
Dew
Point
°C
Rel
Hum
%
Delta-T
°C
Wind Press
QNH
hPa
Press
MSL
hPa
Rain since
9am
mm
Dir  Spd
km/h
Gust
km/h
Spd
kts
Gust
kts
17/09:00pm 38.4 36.6 10.7 19 16.7 SW 11 13 6 7 1006.9 - 0.0
17/08:30pm 38.7 37.8 9.3 17 17.4 W 4 9 2 5 1006.3 - 0.0
17/08:00pm 39.1 38.8 8.7 16 17.9 CALM 0 0 0 0 1005.8 - 0.0
17/07:30pm 39.4 39.2 8.9 16 18.1 CALM 0 7 0 4 1005.2 1001.6 0.0
17/07:00pm 39.8 39.4 8.3 15 18.5 CALM 0 0 0 0 1005.0 - 0.0
17/06:30pm 39.6 37.5 8.1 15 18.4 WNW 9 17 5 9 1004.8 - 0.0
17/06:00pm 39.7 37.3 10.1 17 17.8 SW 13 20 7 11 1005.0 - 0.0
17/05:30pm 39.9 37.2 10.2 17 17.9 SW 15 24 8 13 1005.4 - 0.0
17/05:00pm 40.7 37.0 10.0 16 18.5 SW 20 30 11 16 1005.7 - 0.0
17/04:30pm 40.3 36.7 10.5 17 18.1 W 20 30 11 16 1006.1 1002.4 0.0
17/04:00pm 40.3 37.0 9.6 16 18.4 SSW 17 22 9 12 1006.1 - 0.0
17/03:30pm 40.9 37.2 10.1 16 18.6 SW 20 26 11 14 1006.4 - 0.0
17/03:00pm 40.9 37.4 10.1 16 18.6 S 19 32 10 17 1006.6 - 0.0
17/02:30pm 40.4 36.8 9.7 16 18.4 W 19 39 10 21 1006.9 - 0.0
17/02:00pm 40.0 37.8 9.4 16 18.2 SSE 11 17 6 9 1007.4 - 0.0
17/01:30pm 41.3 38.0 9.5 15 19.1 SSW 17 30 9 16 1008.0 1004.3 0.0
17/01:00pm 39.4 36.2 9.8 17 17.7 WSW 17 33 9 18 1008.5 - 0.0
17/12:30pm 39.1 36.2 9.6 17 17.6 NNE 15 20 8 11 1008.7 - 0.0
17/12:00pm 39.2 35.7 8.8 16 17.9 NE 17 24 9 13 1009.3 - 0.0
17/11:30am 38.2 36.6 8.9 17 17.2 N 7 20 4 11 1010.3 - 0.0
17/11:00am 37.4 34.0 9.1 18 16.6 NNE 17 26 9 14 1010.8 - 0.0
17/10:30am 35.9 33.7 9.4 20 15.5 ESE 11 20 6 11 1011.1 1007.5 0.0
17/10:00am 35.0 32.0 9.4 21 14.9 ESE 15 20 8 11 1010.9 - 0.0
17/09:30am 33.5 30.9 9.5 23 13.9 E 13 20 7 11 1010.5 - 0.0
17/09:00am 33.1 30.2 9.8 24 13.6 E 15 26 8 14 1010.0 - 0.0
17/08:30am 32.5 28.9 10.5 26 12.9 E 20 32 11 17 1009.4 - 0.0
17/08:00am 31.9 28.3 10.6 27 12.5 E 20 30 11 16 1009.3 - 0.0
17/07:30am 31.7 28.8 11.0 28 12.2 ESE 17 26 9 14 1009.0 1005.3 0.0
17/07:00am 31.7 28.2 11.0 28 12.2 ESE 20 30 11 16 1008.3 - 0.0
17/06:30am 31.9 27.9 10.6 27 12.5 ESE 22 35 12 19 1007.9 - 0.0
17/06:00am 32.2 26.3 10.3 26 12.8 ESE 32 46 17 25 1006.9 - 0.0
17/05:30am 32.5 26.8 11.1 27 12.7 ESE 32 48 17 26 1006.7 - 0.0
17/05:00am 32.6 28.5 12.8 30 12.1 ESE 26 35 14 19 1007.4 - 0.0
17/04:30am 32.6 29.3 12.8 30 12.1 ESE 22 35 12 19 1007.8 1004.1 0.0
17/04:00am 32.4 29.6 13.1 31 11.8 SE 20 32 11 17 1008.3 - 0.0
17/03:30am 33.1 30.7 12.7 29 12.4 SE 17 22 9 12 1008.7 - 0.0
17/03:00am 33.4 30.4 12.4 28 12.7 SE 20 30 11 16 1008.4 - 0.0
17/02:30am 33.3 31.4 12.9 29 12.5 SSE 15 22 8 12 1008.5 - 0.0
17/02:00am 33.1 31.3 13.2 30 12.2 S 15 22 8 12 1008.8 - 0.0
17/01:30am 33.3 31.1 13.4 30 12.3 SSE 17 26 9 14 1009.1 1005.5 0.0
17/01:00am 33.5 31.0 13.5 29 12.3 S 19 26 10 14 1009.6 - 0.0
17/12:30am 33.6 30.6 13.6 29 12.4 S 22 33 12 18 1009.6 - 0.0
17/12:00am 33.0 31.1 14.1 32 11.7 S 17 22 9 12 1010.0 - 0.0
 
Date/Time
CST
Temp
°C
App
Temp
°C
Dew
Point
°C
Rel
Hum
%
Delta-T
°C
Wind Press
QNH
hPa
Press
MSL
hPa
Rain since
9am
mm
Dir  Spd
km/h
Gust
km/h
Spd
kts
Gust
kts
16/11:30pm 33.2 29.6 14.3 32 11.8 SW 26 43 14 23 1009.5 - 0.0
16/11:00pm 33.4 30.7 14.5 32 11.8 SW 22 33 12 18 1010.3 - 0.0
16/10:30pm 33.5 31.5 15.0 32 11.7 W 19 24 10 13 1011.0 1007.3 0.0
16/10:00pm 34.7 30.3 13.0 27 13.3 SSW 28 35 15 19 1009.1 - 0.0
16/09:30pm 34.8 29.7 13.6 28 13.2 SSW 33 46 18 25 1009.2 - 0.0
16/09:00pm 34.6 30.1 15.0 31 12.4 SW 32 44 17 24 1008.2 - 0.0
16/08:30pm 33.8 30.2 17.1 37 10.9 WSW 32 43 17 23 1006.7 - 0.0
16/07:30pm 35.8 29.6 13.9 27 13.7 W 39 59 21 32 1004.5 1000.8 0.0
16/07:00pm 40.4 38.1 10.6 17 18.1 SW 13 19 7 10 1003.6 - 0.0
16/06:30pm 41.4 37.3 8.5 14 19.5 SW 20 26 11 14 1003.4 - 0.0
16/06:00pm 41.7 36.2 7.7 13 19.9 SW 26 44 14 24 1003.1 - 0.0
16/05:30pm 43.2 40.7 6.4 11 21.3 NW 9 20 5 11 1002.8 - 0.0
16/05:00pm 44.0 41.7 5.6 10 22.1 NW 7 15 4 8 1003.2 - 0.0
16/04:30pm 44.0 39.8 5.6 10 22.1 W 17 24 9 13 1003.6 999.9 0.0
16/04:00pm 43.7 42.7 5.4 10 21.9 CALM 0 4 0 2 1003.9 - 0.0
16/03:30pm 43.5 38.2 5.2 10 21.8 WNW 22 35 12 19 1004.2 - 0.0
16/03:00pm 43.9 41.2 5.5 10 22.0 WSW 9 17 5 9 1004.5 - 0.0
16/02:30pm 43.7 41.3 5.4 10 21.9 W 7 17 4 9 1004.7 - 0.0
16/02:00pm 44.8 42.2 6.2 10 22.4 S 9 13 5 7 1004.9 - 0.0
16/01:30pm 44.5 39.8 6.0 10 22.3 NW 20 26 11 14 1005.4 1001.7 0.0
16/01:00pm 43.9 41.2 5.5 10 22.0 SE 9 17 5 9 1005.7 - 0.0
16/12:30pm 43.8 40.7 5.5 10 21.9 NE 11 28 6 15 1006.2 - 0.0
16/12:00pm 42.3 39.2 5.7 11 20.9 NW 11 15 6 8 1006.7 - 0.0
16/11:30am 41.8 38.9 6.6 12 20.3 NNE 11 20 6 11 1006.9 - 0.0
16/11:00am 41.3 39.6 7.4 13 19.7 S 6 11 3 6 1007.1 - 0.0
16/10:30am 40.2 38.3 7.6 14 19.0 E 7 13 4 7 1007.5 1003.9 0.0
16/10:00am 39.2 37.2 8.8 16 17.9 SE 9 17 5 9 1007.7 - 0.0
16/09:30am 38.2 35.5 8.9 17 17.2 SE 13 19 7 10 1007.9 - 0.0
16/09:00am 37.7 34.7 9.3 18 16.7 SE 15 19 8 10 1007.9 - 0.0
16/08:30am 35.9 34.1 9.4 20 15.5 SE 9 13 5 7 1007.7 - 0.0
16/08:00am 33.9 32.8 9.9 23 14.1 S 6 7 3 4 1007.7 - 0.0
16/07:30am 31.6 30.6 10.3 27 12.5 SSW 6 9 3 5 1007.4 1003.8 0.0
16/07:00am 29.2 27.9 9.8 30 11.1 SE 7 9 4 5 1007.0 - 0.0
16/06:30am 29.2 29.2 9.8 30 11.1 CALM 0 0 0 0 1006.8 - 0.0
16/06:00am 30.2 28.5 9.7 28 11.8 S 9 11 5 6 1006.4 - 0.0
16/05:30am 31.0 29.9 9.8 27 12.2 SSE 6 7 3 4 1006.0 - 0.0
16/05:00am 31.6 29.9 9.8 26 12.6 ESE 9 13 5 7 1006.2 - 0.0
16/04:30am 30.8 29.4 9.6 27 12.2 E 7 11 4 6 1006.0 1002.3 0.0
16/04:00am 31.6 30.4 10.3 27 12.4 ESE 7 17 4 9 1006.1 - 0.0
16/03:30am 31.7 31.1 10.4 27 12.5 ESE 4 9 2 5 1006.2 - 0.0
16/03:00am 32.7 31.8 10.7 26 13.0 WNW 6 7 3 4 1006.3 - 0.0
16/02:30am 33.1 31.6 10.4 25 13.4 WNW 9 11 5 6 1006.4 - 0.0
16/02:00am 33.5 31.7 9.5 23 13.9 WNW 9 11 5 6 1006.8 - 0.0
16/01:30am 34.5 33.1 9.7 22 14.6 WSW 7 11 4 6 1006.9 1003.2 0.0
16/01:00am 35.5 35.3 9.1 20 15.4 CALM 0 6 0 3 1007.2 - 0.0
16/12:30am 36.5 33.9 9.2 19 16.0 E 13 20 7 11 1007.8 - 0.0
16/12:00am 37.0 33.9 8.8 18 16.5 E 15 20 8 11 1008.2 - 0.0
 
Date/Time
CST
Temp
°C
App
Temp
°C
Dew
Point
°C
Rel
Hum
%
Delta-T
°C
Wind Press
QNH
hPa
Press
MSL
hPa
Rain since
9am
mm
Dir  Spd
km/h
Gust
km/h
Spd
kts
Gust
kts
15/11:30pm 38.4 35.0 9.0 17 17.3 ESE 17 22 9 12 1008.2 - 0.0
15/11:00pm 38.0 35.2 8.7 17 17.1 SSE 13 19 7 10 1008.2 - 0.0
15/10:30pm 38.1 35.6 9.6 18 16.9 SSE 13 19 7 10 1008.3 1004.6 0.0
15/10:00pm 38.8 35.1 9.4 17 17.4 SE 19 28 10 15 1008.4 - 0.0
15/09:30pm 38.0 35.2 12.6 22 15.7 ESE 19 22 10 12 1008.4 - 0.0
15/09:00pm 38.5 35.2 11.5 20 16.5 SSW 20 28 11 15 1006.9 - 0.0
15/08:30pm 39.7 35.0 9.2 16 18.1 S 24 39 13 21 1006.8 - 0.0
15/08:00pm 41.1 39.3 7.2 13 19.7 S 6 17 3 9 1006.2 - 0.0
15/07:30pm 43.0 38.6 4.9 10 21.6 NE 17 28 9 15 1005.2 1001.6 0.0
15/07:00pm 43.5 38.8 5.2 10 21.8 ENE 19 33 10 18 1004.9 - 0.0
15/06:30pm 44.6 39.6 4.5 9 22.7 NNE 20 26 11 14 1004.6 - 0.0
15/06:00pm 44.5 40.1 4.5 9 22.7 NNW 17 26 9 14 1004.5 - 0.0
15/05:30pm 45.6 42.4 5.3 9 23.2 NNE 11 20 6 11 1004.5 - 0.0
15/05:00pm 45.8 41.5 5.4 9 23.3 N 17 30 9 16 1004.6 - 0.0
15/04:30pm 46.0 41.8 5.6 9 23.5 N 17 33 9 18 1005.0 1001.3 0.0
15/04:00pm 45.4 39.4 5.1 9 23.1 N 26 37 14 20 1005.6 - 0.0
15/03:30pm 46.1 41.9 5.6 9 23.5 NNE 17 33 9 18 1005.8 - 0.0
15/03:00pm 44.6 39.8 4.5 9 22.7 WSW 19 26 10 14 1006.0 - 0.0
15/02:30pm 45.3 43.1 5.1 9 23.1 NE 6 15 3 8 1006.4 - 0.0
15/02:00pm 44.4 40.6 5.9 10 22.2 WSW 15 44 8 24 1006.7 - 0.0
15/01:30pm 44.8 40.1 6.2 10 22.5 N 20 32 11 17 1007.1 1003.5 0.0
15/01:00pm 44.3 38.8 5.8 10 22.2 N 24 33 13 18 1007.5 - 0.0
15/12:30pm 44.0 39.2 5.6 10 22.1 N 20 35 11 19 1007.9 - 0.0
15/12:00pm 43.7 38.4 6.8 11 21.5 N 24 37 13 20 1008.3 - 0.0
15/11:30am 43.4 38.0 6.5 11 21.4 NNW 24 33 13 18 1008.4 - 0.0
15/11:00am 42.8 38.0 7.3 12 20.8 NNW 22 30 12 16 1008.5 - 0.0
15/10:30am 41.4 35.9 7.4 13 19.8 NNW 26 35 14 19 1008.7 1005.0 0.0
15/10:00am 40.3 34.7 8.7 15 18.7 NNW 28 39 15 21 1008.8 - 0.0
15/09:30am 38.8 32.4 9.4 17 17.4 N 33 43 18 23 1008.9 - 0.0
15/09:00am 38.2 31.9 8.9 17 17.2 N 32 43 17 23 1008.7 - 0.0
15/08:30am 35.6 31.4 8.4 19 15.7 N 20 28 11 15 1008.7 - 0.0
15/08:00am 32.9 31.8 7.0 20 14.4 NE 2 7 1 4 1008.0 - 0.0
15/07:30am 31.1 28.9 5.5 20 13.8 NE 6 9 3 5 1007.9 1004.2 0.0
15/07:00am 30.6 28.2 5.1 20 13.6 NNE 7 11 4 6 1007.4 - 0.0
15/06:30am 28.8 25.6 0.5 16 13.8 ENE 7 11 4 6 1006.9 - 0.0
15/06:00am 29.3 26.6 0.0 15 14.2 ENE 4 9 2 5 1006.5 - 0.0
15/05:30am 29.4 25.3 0.1 15 14.3 N 11 15 6 8 1006.6 - 0.0
15/05:00am 30.4 27.3 -0.1 14 14.9 NNE 6 7 3 4 1006.3 - 0.0
15/04:30am 31.7 28.2 -1.2 12 16.0 E 7 9 4 5 1006.6 1002.9 0.0
15/04:00am 33.5 30.1 -2.3 10 17.2 E 6 9 3 5 1006.8 - 0.0
15/03:30am 35.4 31.0 -2.3 9 18.4 E 11 19 6 10 1006.7 - 0.0
15/03:00am 36.1 31.4 -1.7 9 18.7 NE 13 20 7 11 1006.8 - 0.0
15/02:30am 36.6 30.2 -1.4 9 18.9 ESE 22 30 12 16 1006.6 - 0.0
15/02:00am 36.6 30.8 -1.4 9 18.9 ESE 19 24 10 13 1006.9 - 0.0
15/01:30am 36.8 31.2 0.2 10 18.8 ESE 19 24 10 13 1007.2 1003.6 0.0
15/01:00am 37.6 32.5 0.8 10 19.1 SE 17 24 9 13 1007.5 - 0.0
15/12:30am 37.8 33.8 4.7 13 18.2 SSE 15 20 8 11 1007.7 - 0.0
15/12:00am 38.2 34.8 6.0 14 18.1 S 13 20 7 11 1007.9 - 0.0
 
Date/Time
CST
Temp
°C
App
Temp
°C
Dew
Point
°C
Rel
Hum
%
Delta-T
°C
Wind Press
QNH
hPa
Press
MSL
hPa
Rain since
9am
mm
Dir  Spd
km/h
Gust
km/h
Spd
kts
Gust
kts
14/11:30pm 36.6 33.9 5.8 15 17.2 N 9 11 5 6 1007.7 - 0.0
14/11:00pm 37.6 34.9 5.6 14 17.9 N 9 11 5 6 1007.8 - 0.0

Other Formats:

Comma delimited format used in spreadsheet applications
http://www.bom.gov.au/fwo/IDD60801/IDD60801.94457.axf

JavaScript Object Notation format (JSON) in row-major order
http://www.bom.gov.au/fwo/IDD60801/IDD60801.94457.json